createdAt,value
2018-06-30T00:01:27.271Z,99.90
2018-06-30T00:03:55.575Z,99.90
2018-06-30T00:11:19.103Z,99.90
2018-06-30T00:13:46.388Z,99.90
2018-06-30T00:18:41.328Z,99.90
2018-06-30T00:21:09.267Z,99.90
2018-06-30T00:23:36.799Z,99.90
2018-06-30T00:26:04.272Z,99.90
2018-06-30T00:28:31.580Z,99.90
2018-06-30T00:30:58.859Z,99.90
2018-06-30T00:33:26.156Z,99.90
2018-06-30T00:35:53.672Z,99.90
2018-06-30T00:38:21.014Z,99.90
2018-06-30T00:40:48.272Z,99.90
2018-06-30T00:43:15.569Z,99.90
2018-06-30T00:45:42.899Z,99.90
2018-06-30T00:48:10.203Z,99.90
2018-06-30T00:50:37.520Z,99.90
2018-06-30T00:53:04.849Z,99.90
2018-06-30T00:55:32.344Z,99.90
2018-06-30T01:00:26.959Z,99.90
2018-06-30T01:02:54.248Z,99.90
2018-06-30T01:05:21.534Z,99.90
2018-06-30T01:07:48.834Z,99.90
2018-06-30T01:10:17.384Z,99.90
2018-06-30T01:12:44.648Z,99.90
2018-06-30T01:15:11.933Z,99.90
2018-06-30T01:17:39.864Z,99.90
2018-06-30T01:20:07.160Z,99.90
2018-06-30T01:22:35.216Z,99.90
2018-06-30T01:25:02.516Z,99.90
2018-06-30T01:27:29.788Z,99.90
2018-06-30T01:29:57.145Z,99.90
2018-06-30T01:32:24.369Z,99.90
2018-06-30T01:34:51.631Z,99.90
2018-06-30T01:37:18.877Z,99.90
2018-06-30T01:39:46.137Z,99.90
2018-06-30T01:42:13.425Z,99.90
2018-06-30T01:44:41.504Z,99.90
2018-06-30T01:47:08.765Z,99.90
2018-06-30T01:49:36.226Z,99.90
2018-06-30T01:52:03.488Z,99.90
2018-06-30T01:54:30.753Z,99.90
2018-06-30T01:56:57.987Z,99.90
2018-06-30T01:59:25.286Z,99.90
2018-06-30T02:01:53.049Z,99.90
2018-06-30T02:04:20.303Z,99.90
2018-06-30T02:06:47.629Z,99.90
2018-06-30T02:09:14.955Z,99.90
2018-06-30T02:11:42.286Z,99.90
2018-06-30T02:19:04.400Z,99.90
2018-06-30T02:21:31.684Z,99.90
2018-06-30T02:23:59.089Z,99.90
2018-06-30T02:26:26.305Z,99.90
2018-06-30T02:28:54.512Z,99.90
2018-06-30T02:31:21.733Z,99.90
2018-06-30T02:36:16.591Z,99.90
2018-06-30T02:38:43.873Z,99.90
2018-06-30T02:41:11.201Z,99.90
2018-06-30T02:43:38.479Z,99.90
2018-06-30T02:46:05.951Z,99.90
2018-06-30T02:48:33.065Z,99.90
2018-06-30T02:51:00.346Z,99.90
2018-06-30T02:53:27.773Z,99.90
2018-06-30T02:55:55.123Z,99.90
2018-06-30T02:58:22.382Z,99.90
2018-06-30T03:00:49.648Z,99.90
2018-06-30T03:03:16.962Z,99.90
2018-06-30T03:05:44.251Z,99.90
2018-06-30T03:08:11.537Z,99.90
2018-06-30T03:13:06.103Z,99.90
2018-06-30T03:15:33.450Z,99.90
2018-06-30T03:18:00.737Z,99.90
2018-06-30T03:20:28.034Z,99.90
2018-06-30T03:22:55.289Z,99.90
2018-06-30T03:25:22.546Z,99.90
2018-06-30T03:27:49.833Z,99.90
2018-06-30T03:30:17.114Z,99.90
2018-06-30T03:32:44.458Z,99.90
2018-06-30T03:35:11.745Z,99.90
2018-06-30T03:37:39.069Z,99.90
2018-06-30T03:40:06.284Z,99.90
2018-06-30T03:42:33.541Z,99.90
2018-06-30T03:45:00.773Z,99.90
2018-06-30T03:47:27.985Z,99.90
2018-06-30T03:49:55.210Z,99.90
2018-06-30T03:52:22.494Z,99.90
2018-06-30T03:54:49.711Z,99.90
2018-06-30T03:57:16.954Z,99.90
2018-06-30T04:02:11.494Z,99.90
2018-06-30T04:04:38.738Z,99.90
2018-06-30T04:07:06.001Z,99.90
2018-06-30T04:14:27.761Z,99.90
2018-06-30T04:16:55.018Z,99.90
2018-06-30T04:19:22.286Z,99.90
2018-06-30T04:21:49.545Z,99.90
2018-06-30T04:24:16.753Z,99.90
2018-06-30T04:29:12.254Z,99.90
2018-06-30T04:31:39.512Z,99.90
2018-06-30T04:34:07.197Z,99.90
2018-06-30T04:36:34.551Z,99.90
2018-06-30T04:39:01.872Z,99.90
2018-06-30T04:41:29.389Z,99.90
2018-06-30T04:43:56.650Z,99.90
2018-06-30T04:46:23.973Z,99.90
2018-06-30T04:48:51.293Z,99.90
2018-06-30T04:51:18.641Z,99.90
2018-06-30T04:53:45.932Z,99.90
2018-06-30T04:56:13.185Z,99.90
2018-06-30T04:58:40.509Z,99.90
2018-06-30T05:01:07.808Z,99.90
2018-06-30T05:03:35.128Z,99.90
2018-06-30T05:06:02.421Z,99.90
2018-06-30T05:08:29.746Z,99.90
2018-06-30T05:10:57.105Z,99.90
2018-06-30T05:13:24.449Z,99.90
2018-06-30T05:15:51.836Z,99.90
2018-06-30T05:18:19.168Z,99.90
2018-06-30T05:20:46.473Z,99.90
2018-06-30T05:23:13.769Z,99.90
2018-06-30T05:25:41.196Z,99.90
2018-06-30T05:28:09.166Z,99.90
2018-06-30T05:30:36.490Z,99.90
2018-06-30T05:33:04.106Z,99.90
2018-06-30T05:35:31.403Z,99.90
2018-06-30T05:37:58.790Z,99.90
2018-06-30T05:40:26.098Z,99.90
2018-06-30T05:42:53.447Z,99.90
2018-06-30T05:52:42.801Z,99.90
2018-06-30T05:55:10.122Z,99.90
2018-06-30T05:57:37.574Z,99.90
2018-06-30T06:00:04.958Z,99.90
2018-06-30T06:02:32.311Z,99.90
2018-06-30T06:04:59.578Z,99.90
2018-06-30T06:07:26.910Z,99.90
2018-06-30T06:09:54.202Z,99.90
2018-06-30T06:12:21.469Z,99.90
2018-06-30T06:17:16.114Z,99.90
2018-06-30T06:19:43.877Z,99.90
2018-06-30T06:24:38.546Z,99.90
2018-06-30T06:27:05.825Z,99.90
2018-06-30T06:29:33.106Z,99.90
2018-06-30T06:32:00.477Z,99.90
2018-06-30T06:34:27.759Z,99.90
2018-06-30T06:39:22.573Z,99.90
2018-06-30T06:41:50.013Z,99.90
2018-06-30T06:44:17.328Z,99.90
2018-06-30T06:46:44.646Z,99.90
2018-06-30T06:49:11.928Z,99.90
2018-06-30T06:51:39.228Z,99.90
2018-06-30T06:54:06.554Z,99.90
2018-06-30T06:56:33.869Z,99.90
2018-06-30T06:59:01.137Z,99.90
2018-06-30T07:01:28.459Z,99.90
2018-06-30T07:03:55.769Z,99.90
2018-06-30T07:06:23.101Z,99.90
2018-06-30T07:08:50.446Z,99.90
2018-06-30T07:11:17.740Z,99.90
2018-06-30T07:13:45.037Z,99.90
2018-06-30T07:16:12.325Z,99.90
2018-06-30T07:18:39.705Z,99.90
2018-06-30T07:21:07.078Z,99.90
2018-06-30T07:23:34.422Z,99.90
2018-06-30T07:26:01.819Z,99.90
2018-06-30T07:28:29.111Z,99.90
2018-06-30T07:30:56.557Z,99.90
2018-06-30T07:33:23.669Z,99.90
2018-06-30T07:35:50.951Z,99.90
2018-06-30T07:38:18.243Z,99.90
2018-06-30T07:40:45.489Z,99.90
2018-06-30T07:43:12.770Z,99.90
2018-06-30T07:45:40.053Z,99.90
2018-06-30T07:48:07.382Z,99.90
2018-06-30T07:50:34.950Z,99.90
2018-06-30T07:55:30.129Z,99.90
2018-06-30T07:57:57.460Z,99.90
2018-06-30T08:00:24.748Z,99.90
2018-06-30T08:02:52.073Z,99.90
2018-06-30T08:05:19.443Z,99.90
2018-06-30T08:07:46.696Z,99.90
2018-06-30T08:10:14.136Z,99.90
2018-06-30T08:12:41.430Z,99.90
2018-06-30T08:15:08.844Z,99.90
2018-06-30T08:17:38.077Z,99.90
2018-06-30T08:20:05.589Z,99.90
2018-06-30T08:22:32.905Z,99.90
2018-06-30T08:25:00.240Z,99.90
2018-06-30T08:34:49.641Z,99.90
2018-06-30T08:37:17.029Z,99.90
2018-06-30T08:39:44.350Z,99.90
2018-06-30T08:42:11.602Z,99.90
2018-06-30T08:44:38.931Z,99.90
2018-06-30T08:47:06.218Z,99.90
2018-06-30T08:49:33.481Z,99.90
2018-06-30T08:52:00.909Z,99.90
2018-06-30T08:54:28.233Z,99.90
2018-06-30T08:56:56.159Z,99.90
2018-06-30T08:59:23.425Z,99.90
2018-06-30T09:01:50.726Z,99.90
2018-06-30T09:04:18.023Z,99.90
2018-06-30T09:06:45.307Z,99.90
2018-06-30T09:09:12.650Z,99.90
2018-06-30T09:11:40.366Z,99.90
2018-06-30T09:14:07.817Z,99.90
2018-06-30T09:16:35.122Z,99.90
2018-06-30T09:19:02.400Z,99.90
2018-06-30T09:21:29.685Z,99.90
2018-06-30T09:23:56.973Z,99.90
2018-06-30T09:26:24.278Z,99.90
2018-06-30T09:28:51.562Z,99.90
2018-06-30T09:31:18.861Z,99.90
2018-06-30T09:33:46.143Z,99.90
2018-06-30T09:36:13.470Z,99.90
2018-06-30T09:38:40.758Z,99.90
2018-06-30T09:43:35.437Z,99.90
2018-06-30T09:46:02.769Z,99.90
2018-06-30T09:48:30.150Z,99.90
2018-06-30T09:50:57.475Z,99.90
2018-06-30T09:53:24.770Z,99.90
2018-06-30T09:55:52.135Z,99.90
2018-06-30T09:58:19.497Z,99.90
2018-06-30T10:03:17.188Z,99.90
2018-06-30T10:05:44.577Z,99.90
2018-06-30T10:08:11.953Z,99.90
2018-06-30T10:10:39.277Z,99.90
2018-06-30T10:13:06.526Z,99.90
2018-06-30T10:15:33.881Z,99.90
2018-06-30T10:18:01.220Z,99.90
2018-06-30T10:20:28.553Z,99.90
2018-06-30T10:22:55.910Z,99.90
2018-06-30T10:25:23.222Z,99.90
2018-06-30T10:27:50.487Z,99.90
2018-06-30T10:30:17.868Z,99.90
2018-06-30T10:32:45.166Z,99.90
2018-06-30T10:35:12.467Z,99.90
2018-06-30T10:37:39.853Z,99.90
2018-06-30T10:40:07.118Z,99.90
2018-06-30T10:42:34.409Z,99.90
2018-06-30T10:45:01.683Z,99.90
2018-06-30T10:47:29.006Z,99.90
2018-06-30T10:52:23.594Z,99.90
2018-06-30T10:54:50.948Z,99.90
2018-06-30T10:57:18.487Z,99.90
2018-06-30T10:59:45.866Z,99.90
2018-06-30T11:02:13.149Z,99.90
2018-06-30T11:07:07.710Z,99.90
2018-06-30T11:09:35.027Z,99.90
2018-06-30T11:12:02.395Z,99.90
2018-06-30T11:14:30.069Z,99.90
2018-06-30T11:16:57.441Z,99.90
2018-06-30T11:19:24.810Z,99.90
2018-06-30T11:21:52.188Z,99.90
2018-06-30T11:24:19.473Z,99.90
2018-06-30T11:26:46.741Z,99.90
2018-06-30T11:29:14.029Z,99.90
2018-06-30T11:31:41.288Z,99.90
2018-06-30T11:34:08.594Z,99.90
2018-06-30T11:36:35.913Z,99.90
2018-06-30T11:39:05.798Z,99.90
2018-06-30T11:41:33.125Z,99.90
2018-06-30T11:44:00.392Z,99.90
2018-06-30T11:46:27.697Z,99.90
2018-06-30T11:48:54.988Z,99.90
2018-06-30T11:51:22.269Z,99.90
2018-06-30T11:53:49.568Z,99.90
2018-06-30T11:58:44.290Z,99.90
2018-06-30T12:01:11.632Z,99.90
2018-06-30T12:03:38.971Z,99.90
2018-06-30T12:06:06.332Z,99.90
2018-06-30T12:08:33.650Z,99.90
2018-06-30T12:11:01.043Z,99.90
2018-06-30T12:15:55.866Z,99.90
2018-06-30T12:18:23.280Z,99.90
2018-06-30T12:20:50.669Z,99.90
2018-06-30T12:23:17.942Z,99.90
2018-06-30T12:25:45.223Z,99.90
2018-06-30T12:28:12.584Z,99.90
2018-06-30T12:30:39.865Z,99.90
2018-06-30T12:33:07.293Z,99.90
2018-06-30T12:35:34.642Z,99.90
2018-06-30T12:38:01.893Z,99.90
2018-06-30T12:42:56.549Z,99.90
2018-06-30T12:45:23.875Z,99.90
2018-06-30T12:47:51.133Z,99.90
2018-06-30T12:50:18.424Z,99.90
2018-06-30T12:55:13.074Z,99.90
2018-06-30T12:57:40.332Z,99.90
2018-06-30T13:00:07.741Z,99.90
2018-06-30T13:02:35.013Z,99.90
2018-06-30T13:05:02.440Z,99.90
2018-06-30T13:07:29.720Z,99.90
2018-06-30T13:09:57.116Z,99.90
2018-06-30T13:12:24.400Z,99.90
2018-06-30T13:14:51.725Z,99.90
2018-06-30T13:17:19.104Z,99.90
2018-06-30T13:19:46.388Z,99.90
2018-06-30T13:22:13.676Z,99.90
2018-06-30T13:24:40.978Z,99.90
2018-06-30T13:27:08.366Z,99.90
2018-06-30T13:29:35.807Z,99.90
2018-06-30T13:32:03.211Z,99.90
2018-06-30T13:34:30.549Z,99.90
2018-06-30T13:36:57.925Z,99.90
2018-06-30T13:39:25.313Z,99.90
2018-06-30T13:41:52.619Z,99.90
2018-06-30T13:44:19.993Z,99.90
2018-06-30T13:46:47.482Z,99.90
2018-06-30T13:49:14.861Z,99.90
2018-06-30T13:51:42.256Z,99.90
2018-06-30T13:54:09.669Z,99.90
2018-06-30T13:56:37.144Z,99.90
2018-06-30T13:59:04.537Z,99.90
2018-06-30T14:01:32.009Z,99.90
2018-06-30T14:03:59.517Z,99.90
2018-06-30T14:06:26.954Z,99.90
2018-06-30T14:08:54.510Z,99.90
2018-06-30T14:11:21.921Z,99.90
2018-06-30T14:13:49.457Z,99.90
2018-06-30T14:16:16.901Z,99.90
2018-06-30T14:18:44.428Z,99.90
2018-06-30T14:21:11.761Z,99.90
2018-06-30T14:23:39.194Z,99.70
2018-06-30T14:26:06.516Z,99.90
2018-06-30T14:28:33.887Z,99.60
2018-06-30T14:31:01.165Z,99.10
2018-06-30T14:33:28.441Z,98.30
2018-06-30T14:35:55.753Z,97.70
2018-06-30T14:38:23.138Z,97.50
2018-06-30T14:40:50.438Z,96.90
2018-06-30T14:43:17.745Z,96.40
2018-06-30T14:48:12.430Z,95.50
2018-06-30T14:50:39.713Z,95.10
2018-06-30T14:53:07.040Z,94.60
2018-06-30T14:55:34.263Z,94.50
2018-06-30T14:58:01.511Z,94.30
2018-06-30T15:00:28.785Z,94.00
2018-06-30T15:02:56.077Z,94.30
2018-06-30T15:07:50.552Z,92.70
2018-06-30T15:10:17.873Z,92.20
2018-06-30T15:15:12.397Z,91.40
2018-06-30T15:17:39.778Z,91.20
2018-06-30T15:22:34.433Z,90.40
2018-06-30T15:25:01.793Z,89.80
2018-06-30T15:27:29.102Z,90.20
2018-06-30T15:29:56.346Z,87.00
2018-06-30T15:32:23.630Z,84.70
2018-06-30T15:34:50.860Z,85.10
2018-06-30T15:37:18.072Z,84.90
2018-06-30T15:39:45.367Z,84.40
2018-06-30T15:42:12.621Z,82.40
2018-06-30T15:44:39.911Z,81.80
2018-06-30T15:47:07.155Z,82.50
2018-06-30T15:49:34.394Z,80.90
2018-06-30T15:52:01.700Z,78.30
2018-06-30T15:54:28.926Z,78.70
2018-06-30T15:56:56.185Z,77.20
2018-06-30T15:59:23.457Z,76.20
2018-06-30T16:01:50.866Z,75.10
2018-06-30T16:04:18.112Z,75.70
2018-06-30T16:09:12.710Z,74.30
2018-06-30T16:11:40.142Z,75.00
2018-06-30T16:14:08.228Z,74.60
2018-06-30T16:16:35.531Z,72.30
2018-06-30T16:19:02.912Z,71.70
2018-06-30T16:21:30.160Z,72.50
2018-06-30T16:23:57.413Z,70.50
2018-06-30T16:26:24.675Z,70.80
2018-06-30T16:28:52.166Z,69.80
2018-06-30T16:31:19.439Z,69.30
2018-06-30T16:33:46.761Z,70.20
2018-06-30T16:36:14.072Z,69.30
2018-06-30T16:38:41.357Z,68.80
2018-06-30T16:41:08.609Z,68.80
2018-06-30T16:43:36.001Z,67.70
2018-06-30T16:46:03.286Z,67.60
2018-06-30T16:53:25.143Z,68.40
2018-06-30T16:55:52.425Z,66.90
2018-06-30T16:58:19.706Z,67.20
2018-06-30T17:03:14.248Z,67.10
2018-06-30T17:05:41.494Z,66.80
2018-06-30T17:08:08.894Z,67.20
2018-06-30T17:10:36.189Z,66.30
2018-06-30T17:13:03.481Z,66.40
2018-06-30T17:15:30.802Z,66.60
2018-06-30T17:17:58.038Z,67.00
2018-06-30T17:22:52.700Z,67.20
2018-06-30T17:25:19.945Z,68.10
2018-06-30T17:27:47.221Z,68.30
2018-06-30T17:30:14.467Z,67.70
2018-06-30T17:35:08.945Z,67.40
2018-06-30T17:37:36.202Z,66.80
2018-06-30T17:40:03.749Z,67.20
2018-06-30T17:42:30.984Z,67.50
2018-06-30T17:44:58.229Z,67.30
2018-06-30T17:47:25.455Z,66.80
2018-06-30T17:49:52.738Z,66.70
2018-06-30T17:52:20.384Z,67.30
2018-06-30T17:54:47.602Z,67.70
2018-06-30T17:57:14.844Z,67.60
2018-06-30T17:59:42.070Z,67.80
2018-06-30T18:02:09.325Z,67.30
2018-06-30T18:09:31.839Z,68.20
2018-06-30T18:16:53.759Z,67.40
2018-06-30T18:19:21.127Z,67.10
2018-06-30T18:21:49.158Z,67.70
2018-06-30T18:24:16.457Z,67.90
2018-06-30T18:29:10.999Z,68.40
2018-06-30T18:31:38.561Z,68.10
2018-06-30T18:39:00.653Z,67.90
2018-06-30T18:41:27.985Z,68.80
2018-06-30T18:43:55.271Z,69.10
2018-06-30T18:46:22.595Z,69.00
2018-06-30T18:48:49.901Z,68.70
2018-06-30T18:51:17.294Z,69.20
2018-06-30T18:53:44.572Z,69.20
2018-06-30T18:56:11.943Z,69.70
2018-06-30T18:58:39.208Z,69.90
2018-06-30T19:01:06.538Z,70.30
2018-06-30T19:03:33.830Z,70.60
2018-06-30T19:06:01.121Z,70.80
2018-06-30T19:08:28.409Z,71.10
2018-06-30T19:10:55.646Z,71.50
2018-06-30T19:13:22.925Z,71.60
2018-06-30T19:15:50.379Z,71.70
2018-06-30T19:18:17.614Z,72.20
2018-06-30T19:20:44.881Z,72.40
2018-06-30T19:25:39.393Z,72.60
2018-06-30T19:28:06.682Z,71.60
2018-06-30T19:30:33.913Z,71.80
2018-06-30T19:33:01.185Z,71.60
2018-06-30T19:35:28.450Z,71.60
2018-06-30T19:37:55.750Z,71.90
2018-06-30T19:40:22.997Z,72.60
2018-06-30T19:42:50.394Z,71.90
2018-06-30T19:45:17.713Z,72.20
2018-06-30T19:47:45.090Z,72.60
2018-06-30T19:50:12.341Z,72.90
2018-06-30T19:52:39.576Z,73.10
2018-06-30T19:55:06.832Z,73.60
2018-06-30T19:57:34.117Z,74.00
2018-06-30T20:00:01.381Z,74.20
2018-06-30T20:02:28.622Z,74.20
2018-06-30T20:04:55.896Z,74.40
2018-06-30T20:07:23.193Z,74.90
2018-06-30T20:09:50.489Z,75.30
2018-06-30T20:12:17.792Z,75.50
2018-06-30T20:14:45.141Z,75.70
2018-06-30T20:17:12.528Z,75.60
2018-06-30T20:19:39.848Z,75.70
2018-06-30T20:22:07.112Z,75.80
2018-06-30T20:24:34.381Z,76.30
2018-06-30T20:27:01.815Z,76.50
2018-06-30T20:29:29.125Z,76.80
2018-06-30T20:31:56.450Z,76.70
2018-06-30T20:34:23.726Z,76.80
2018-06-30T20:36:51.039Z,76.50
2018-06-30T20:41:45.604Z,77.10
2018-06-30T20:44:12.890Z,76.70
2018-06-30T20:46:40.176Z,76.80
2018-06-30T20:49:07.440Z,77.20
2018-06-30T20:51:34.721Z,77.10
2018-06-30T20:56:29.340Z,77.40
2018-06-30T20:58:56.629Z,77.70
2018-06-30T21:03:51.157Z,77.50
2018-06-30T21:06:18.473Z,77.90
2018-06-30T21:08:45.706Z,77.90
2018-06-30T21:11:12.950Z,78.40
2018-06-30T21:13:40.309Z,78.50
2018-06-30T21:16:08.421Z,78.90
2018-06-30T21:18:35.690Z,78.70
2018-06-30T21:21:02.958Z,79.00
2018-06-30T21:23:30.243Z,79.30
2018-06-30T21:25:57.465Z,79.40
2018-06-30T21:28:24.809Z,79.50
2018-06-30T21:30:52.072Z,79.70
2018-06-30T21:33:19.348Z,80.00
2018-06-30T21:35:46.698Z,80.50
2018-06-30T21:38:13.908Z,80.50
2018-06-30T21:40:41.189Z,80.80
2018-06-30T21:43:08.483Z,80.90
2018-06-30T21:45:35.705Z,80.90
2018-06-30T21:48:02.993Z,81.10
2018-06-30T21:50:30.264Z,81.00
2018-06-30T21:52:57.542Z,81.40
2018-06-30T21:55:24.777Z,81.50
2018-06-30T21:57:52.096Z,82.20
2018-06-30T22:00:30.353Z,82.10
2018-06-30T22:02:57.578Z,82.20
2018-06-30T22:05:24.794Z,82.20
2018-06-30T22:07:52.013Z,82.30
2018-06-30T22:10:19.361Z,82.50
2018-06-30T22:12:46.646Z,82.50
2018-06-30T22:15:13.990Z,82.60
2018-06-30T22:17:41.261Z,82.70
2018-06-30T22:20:08.577Z,82.80
2018-06-30T22:22:35.918Z,82.90
2018-06-30T22:25:03.254Z,82.90
2018-06-30T22:27:30.540Z,83.00
2018-06-30T22:29:57.786Z,83.10
2018-06-30T22:32:25.157Z,83.40
2018-06-30T22:34:52.462Z,83.60
2018-06-30T22:37:19.741Z,83.70
2018-06-30T22:42:20.049Z,84.00
2018-06-30T22:44:47.331Z,85.00
2018-06-30T22:47:14.795Z,84.20
2018-06-30T22:49:42.014Z,84.60
2018-06-30T22:52:09.345Z,85.60
2018-06-30T22:54:36.607Z,84.80
2018-06-30T22:57:03.963Z,85.60
2018-06-30T22:59:31.214Z,85.30
2018-06-30T23:01:58.518Z,85.50
2018-06-30T23:04:25.765Z,85.90
2018-06-30T23:06:53.040Z,86.40
2018-06-30T23:09:20.287Z,86.30
2018-06-30T23:11:47.538Z,86.30
2018-06-30T23:14:14.833Z,86.50
2018-06-30T23:16:42.094Z,86.50
2018-06-30T23:19:09.403Z,86.80
2018-06-30T23:21:36.707Z,87.00
2018-06-30T23:24:04.003Z,87.20
2018-06-30T23:26:31.301Z,87.50
2018-06-30T23:28:58.640Z,87.80
2018-06-30T23:31:25.890Z,87.80
2018-06-30T23:33:53.204Z,88.30
2018-06-30T23:36:20.474Z,88.40
2018-06-30T23:38:47.752Z,88.60
2018-06-30T23:41:15.017Z,88.90
2018-06-30T23:43:42.305Z,89.30
2018-06-30T23:46:09.564Z,89.50
2018-06-30T23:48:36.850Z,89.60
2018-06-30T23:51:04.136Z,89.80
2018-06-30T23:53:31.427Z,90.00
2018-06-30T23:55:58.669Z,90.10
2018-06-30T23:58:25.945Z,90.20
